createdAt,value
2022-12-02T00:01:33.984Z,13.35
2022-12-02T00:04:05.405Z,13.87
2022-12-02T00:06:35.114Z,14.68
2022-12-02T00:09:10.183Z,14.30
2022-12-02T00:11:41.266Z,13.78
2022-12-02T00:14:19.372Z,14.28
2022-12-02T00:16:49.837Z,14.38
2022-12-02T00:19:19.849Z,14.10
2022-12-02T00:21:50.632Z,14.83
2022-12-02T00:24:21.164Z,16.12
2022-12-02T00:26:50.641Z,15.08
2022-12-02T00:29:20.144Z,15.90
2022-12-02T00:31:51.077Z,18.37
2022-12-02T00:34:20.616Z,15.43
2022-12-02T00:36:50.071Z,15.45
2022-12-02T00:39:19.559Z,15.05
2022-12-02T00:41:48.956Z,15.23
2022-12-02T00:44:37.379Z,15.43
2022-12-02T00:47:06.965Z,14.98
2022-12-02T00:49:36.466Z,13.98
2022-12-02T00:52:06.022Z,15.55
2022-12-02T00:54:35.452Z,15.08
2022-12-02T00:57:06.530Z,14.30
2022-12-02T00:59:36.035Z,14.53
2022-12-02T01:02:05.608Z,15.00
2022-12-02T01:04:35.200Z,16.17
2022-12-02T01:07:04.688Z,15.32
2022-12-02T01:09:36.425Z,16.32
2022-12-02T01:12:06.325Z,17.02
2022-12-02T01:14:35.822Z,15.95
2022-12-02T01:17:06.195Z,17.60
2022-12-02T01:19:35.745Z,17.00
2022-12-02T01:22:06.981Z,17.15
2022-12-02T01:24:36.411Z,17.67
2022-12-02T01:27:05.856Z,15.55
2022-12-02T01:29:35.335Z,15.38
2022-12-02T01:32:04.972Z,16.05
2022-12-02T01:34:34.729Z,15.70
2022-12-02T01:37:04.259Z,16.20
2022-12-02T01:39:33.681Z,15.45
2022-12-02T01:42:03.556Z,17.15
2022-12-02T01:44:34.046Z,16.10
2022-12-02T01:47:04.436Z,15.95
2022-12-02T01:49:34.075Z,16.02
2022-12-02T01:52:03.584Z,16.07
2022-12-02T01:54:34.957Z,15.78
2022-12-02T01:57:05.772Z,15.93
2022-12-02T01:59:35.285Z,16.30
2022-12-02T02:02:04.832Z,16.42
2022-12-02T02:04:34.490Z,16.23
2022-12-02T02:07:05.495Z,17.35
2022-12-02T02:09:35.025Z,17.15
2022-12-02T02:12:04.729Z,16.30
2022-12-02T02:14:34.759Z,15.58
2022-12-02T02:17:04.903Z,16.50
2022-12-02T02:19:34.789Z,14.85
2022-12-02T02:22:07.660Z,16.87
2022-12-02T02:24:37.153Z,16.97
2022-12-02T02:27:07.108Z,16.35
2022-12-02T02:29:37.706Z,16.35
2022-12-02T02:32:08.347Z,17.87
2022-12-02T02:34:38.787Z,16.82
2022-12-02T02:37:08.510Z,17.67
2022-12-02T02:39:38.837Z,17.62
2022-12-02T02:42:08.847Z,16.73
2022-12-02T02:44:38.477Z,16.62
2022-12-02T02:47:08.685Z,17.37
2022-12-02T02:49:38.247Z,17.07
2022-12-02T02:52:08.771Z,16.85
2022-12-02T02:54:39.429Z,17.07
2022-12-02T02:57:10.632Z,16.93
2022-12-02T02:59:43.764Z,16.87
2022-12-02T03:02:14.369Z,16.37
2022-12-02T03:04:45.094Z,16.37
2022-12-02T03:07:15.656Z,16.95
2022-12-02T03:09:45.919Z,17.85
2022-12-02T03:12:15.961Z,17.07
2022-12-02T03:14:46.322Z,15.30
2022-12-02T03:17:16.949Z,16.27
2022-12-02T03:19:47.201Z,17.00
2022-12-02T03:22:16.778Z,16.75
2022-12-02T03:25:44.183Z,15.70
2022-12-02T03:28:13.850Z,17.17
2022-12-02T03:30:43.898Z,16.80
2022-12-02T03:33:13.611Z,17.42
2022-12-02T03:35:43.169Z,15.95
2022-12-02T03:38:12.749Z,16.05
2022-12-02T03:40:42.597Z,15.68
2022-12-02T03:43:12.107Z,15.88
2022-12-02T03:45:43.307Z,17.45
2022-12-02T03:48:14.730Z,15.45
2022-12-02T03:50:44.206Z,16.40
2022-12-02T03:53:13.713Z,16.07
2022-12-02T03:55:43.278Z,14.60
2022-12-02T03:58:12.825Z,15.98
2022-12-02T04:00:42.317Z,16.37
2022-12-02T04:03:11.863Z,16.17
2022-12-02T04:05:46.412Z,15.93
2022-12-02T04:08:12.473Z,14.90
2022-12-02T04:10:42.040Z,16.67
2022-12-02T04:13:11.463Z,15.90
2022-12-02T04:15:40.944Z,17.23
2022-12-02T04:18:10.603Z,15.98
2022-12-02T04:20:40.029Z,16.62
2022-12-02T04:23:10.091Z,15.70
2022-12-02T04:25:39.588Z,15.70
2022-12-02T04:28:09.096Z,16.10
2022-12-02T04:30:38.599Z,16.37
2022-12-02T04:33:08.040Z,15.03
2022-12-02T04:35:37.461Z,15.45
2022-12-02T04:38:11.720Z,15.00
2022-12-02T04:40:38.011Z,15.90
2022-12-02T04:43:07.580Z,15.60
2022-12-02T04:45:37.411Z,14.75
2022-12-02T04:48:06.899Z,15.53
2022-12-02T04:50:36.381Z,15.38
2022-12-02T04:53:05.943Z,15.43
2022-12-02T04:55:35.361Z,16.30
2022-12-02T04:58:05.931Z,15.03
2022-12-02T05:00:35.415Z,14.95
2022-12-02T05:03:04.962Z,14.43
2022-12-02T05:05:34.497Z,16.93
2022-12-02T05:08:04.093Z,14.90
2022-12-02T05:10:34.721Z,15.50
2022-12-02T05:13:04.302Z,16.37
2022-12-02T05:15:33.743Z,15.60
2022-12-02T05:18:03.304Z,14.93
2022-12-02T05:20:32.805Z,15.97
2022-12-02T05:23:02.284Z,15.38
2022-12-02T05:25:31.701Z,15.75
2022-12-02T05:28:01.204Z,16.32
2022-12-02T05:30:30.626Z,15.38
2022-12-02T05:33:00.073Z,16.25
2022-12-02T05:35:29.511Z,16.67
2022-12-02T05:38:04.435Z,15.95
2022-12-02T05:40:30.101Z,16.85
2022-12-02T05:43:02.960Z,16.80
2022-12-02T05:45:32.382Z,15.65
2022-12-02T05:48:01.814Z,15.63
2022-12-02T05:50:33.012Z,16.13
2022-12-02T05:53:03.168Z,17.15
2022-12-02T05:55:33.032Z,16.23
2022-12-02T05:58:05.230Z,16.02
2022-12-02T06:00:34.803Z,16.33
2022-12-02T06:03:07.391Z,16.85
2022-12-02T06:15:47.208Z,16.02
2022-12-02T06:18:23.024Z,15.70
2022-12-02T06:20:55.635Z,17.20
2022-12-02T06:25:57.163Z,16.67
2022-12-02T06:28:35.222Z,17.12
2022-12-02T06:31:20.026Z,17.27
2022-12-02T06:33:51.836Z,17.95
2022-12-02T06:36:27.072Z,17.48
2022-12-02T06:39:00.001Z,17.90
2022-12-02T06:41:32.823Z,18.23
2022-12-02T06:44:23.496Z,17.02
2022-12-02T06:46:52.942Z,16.95
2022-12-02T06:49:28.268Z,18.17
2022-12-02T06:52:00.533Z,17.67
2022-12-02T06:54:33.107Z,17.35
2022-12-02T06:57:03.842Z,19.10
2022-12-02T06:59:33.267Z,18.23
2022-12-02T07:02:08.133Z,17.12
2022-12-02T07:04:47.006Z,17.77
2022-12-02T07:07:19.499Z,17.95
2022-12-02T07:09:57.832Z,18.50
2022-12-02T07:12:46.922Z,18.15
2022-12-02T07:15:28.582Z,17.70
2022-12-02T07:18:16.952Z,17.73
2022-12-02T07:20:47.878Z,17.90
2022-12-02T07:23:26.562Z,18.20
2022-12-02T07:26:00.272Z,16.17
2022-12-02T07:28:38.681Z,17.52
2022-12-02T07:31:25.648Z,16.73
2022-12-02T07:33:55.882Z,18.02
2022-12-02T07:36:25.321Z,18.30
2022-12-02T07:39:05.901Z,17.62
2022-12-02T07:41:25.821Z,18.12
2022-12-02T07:43:55.242Z,17.90
2022-12-02T07:46:24.724Z,18.57
2022-12-02T07:48:57.080Z,19.25
2022-12-02T07:51:25.939Z,20.35
2022-12-02T07:53:55.945Z,20.12
2022-12-02T07:56:25.442Z,19.20
2022-12-02T07:59:12.507Z,19.32
2022-12-02T08:01:26.206Z,19.48
2022-12-02T08:03:55.767Z,17.98
2022-12-02T08:06:25.277Z,17.37
2022-12-02T08:08:54.932Z,17.10
2022-12-02T08:11:24.489Z,18.60
2022-12-02T08:13:54.796Z,18.23
2022-12-02T08:16:24.334Z,18.40
2022-12-02T08:18:53.850Z,18.80
2022-12-02T08:21:23.492Z,19.90
2022-12-02T08:23:53.320Z,18.95
2022-12-02T08:26:23.158Z,19.50
2022-12-02T08:28:54.387Z,19.77
2022-12-02T08:31:24.378Z,19.52
2022-12-02T08:33:55.323Z,18.70
2022-12-02T08:36:24.986Z,18.67
2022-12-02T08:38:54.723Z,20.08
2022-12-02T08:41:24.422Z,20.08
2022-12-02T08:43:54.153Z,19.73
2022-12-02T08:46:23.864Z,19.15
2022-12-02T08:51:22.323Z,20.27
2022-12-02T08:53:51.947Z,20.32
2022-12-02T08:56:21.690Z,21.05
2022-12-02T08:58:51.607Z,21.42
2022-12-02T09:01:21.385Z,20.62
2022-12-02T09:03:51.353Z,17.80
2022-12-02T09:06:21.055Z,18.90
2022-12-02T09:08:50.836Z,19.07
2022-12-02T09:11:21.335Z,17.85
2022-12-02T09:13:50.966Z,18.70
2022-12-02T09:16:20.635Z,19.35
2022-12-02T09:18:51.567Z,20.35
2022-12-02T09:21:23.685Z,20.52
2022-12-02T09:23:53.312Z,18.37
2022-12-02T09:26:23.059Z,19.23
2022-12-02T09:28:52.691Z,18.92
2022-12-02T09:31:23.256Z,19.42
2022-12-02T09:33:53.162Z,19.85
2022-12-02T09:36:22.665Z,18.85
2022-12-02T09:38:52.229Z,20.12
2022-12-02T09:41:22.057Z,20.27
2022-12-02T09:43:52.268Z,20.75
2022-12-02T09:46:24.756Z,19.57
2022-12-02T09:48:54.309Z,20.25
2022-12-02T09:58:56.849Z,18.20
2022-12-02T10:01:27.768Z,18.98
2022-12-02T10:03:57.418Z,18.92
2022-12-02T10:06:29.594Z,19.50
2022-12-02T10:09:00.336Z,20.08
2022-12-02T10:11:36.614Z,18.37
2022-12-02T10:14:07.930Z,18.50
2022-12-02T10:16:39.308Z,19.23
2022-12-02T10:19:12.109Z,19.77
2022-12-02T10:21:41.707Z,18.12
2022-12-02T10:24:13.327Z,18.42
2022-12-02T10:26:52.067Z,19.10
2022-12-02T10:29:33.394Z,19.30
2022-12-02T10:32:06.192Z,19.87
2022-12-02T10:34:37.382Z,19.30
2022-12-02T10:37:19.439Z,19.07
2022-12-02T10:39:49.141Z,19.90
2022-12-02T10:42:20.850Z,17.77
2022-12-02T10:44:53.662Z,18.33
2022-12-02T10:47:27.146Z,18.77
2022-12-02T10:50:01.354Z,20.08
2022-12-02T10:52:49.375Z,19.57
2022-12-02T10:55:21.066Z,19.48
2022-12-02T10:57:52.013Z,20.03
2022-12-02T11:00:27.735Z,19.87
2022-12-02T11:03:01.130Z,19.35
2022-12-02T11:05:33.563Z,19.20
2022-12-02T11:08:27.032Z,19.75
2022-12-02T11:14:03.818Z,18.23
2022-12-02T11:16:36.485Z,19.70
2022-12-02T11:19:27.150Z,19.02
2022-12-02T11:22:00.415Z,17.87
2022-12-02T11:27:06.343Z,18.80
2022-12-02T11:29:38.727Z,19.50
2022-12-02T11:32:29.213Z,17.60
2022-12-02T11:35:19.244Z,19.12
2022-12-02T11:37:40.212Z,18.32
2022-12-02T11:40:15.945Z,19.40
2022-12-02T11:42:46.720Z,19.23
2022-12-02T11:45:22.016Z,18.07
2022-12-02T11:48:00.689Z,18.48
2022-12-02T11:50:35.772Z,18.55
2022-12-02T11:53:17.516Z,19.95
2022-12-02T11:55:49.248Z,19.00
2022-12-02T11:58:33.878Z,18.98
2022-12-02T12:01:09.123Z,17.90
2022-12-02T12:03:44.216Z,19.23
2022-12-02T12:06:15.971Z,19.98
2022-12-02T12:08:53.453Z,19.55
2022-12-02T12:11:35.276Z,19.70
2022-12-02T12:14:08.104Z,17.85
2022-12-02T12:16:40.828Z,18.85
2022-12-02T12:19:16.405Z,16.85
2022-12-02T12:21:48.752Z,18.65
2022-12-02T12:24:22.632Z,17.02
2022-12-02T12:26:55.661Z,16.65
2022-12-02T12:29:28.112Z,17.25
2022-12-02T12:31:57.604Z,17.23
2022-12-02T12:34:30.690Z,17.67
2022-12-02T12:39:28.965Z,16.75
2022-12-02T12:42:00.580Z,16.25
2022-12-02T12:44:32.797Z,19.57
2022-12-02T12:47:05.127Z,17.48
2022-12-02T12:49:36.425Z,17.03
2022-12-02T12:52:06.194Z,17.50
2022-12-02T12:54:36.905Z,17.30
2022-12-02T12:57:06.722Z,17.87
2022-12-02T12:59:36.215Z,17.73
2022-12-02T13:02:05.730Z,16.93
2022-12-02T13:04:36.438Z,17.00
2022-12-02T13:07:05.903Z,17.93
2022-12-02T13:09:35.454Z,18.10
2022-12-02T13:12:09.776Z,17.25
2022-12-02T13:14:36.231Z,16.87
2022-12-02T13:17:05.761Z,18.15
2022-12-02T13:19:36.244Z,17.40
2022-12-02T13:22:06.639Z,17.55
2022-12-02T13:24:53.007Z,19.25
2022-12-02T13:27:11.775Z,18.07
2022-12-02T13:29:42.166Z,18.10
2022-12-02T13:32:11.833Z,18.40
2022-12-02T13:34:42.160Z,18.02
2022-12-02T13:37:11.803Z,18.10
2022-12-02T13:39:41.379Z,18.67
2022-12-02T13:42:10.923Z,18.40
2022-12-02T13:44:40.557Z,18.90
2022-12-02T13:47:10.204Z,18.98
2022-12-02T13:49:39.865Z,18.23
2022-12-02T13:52:10.244Z,17.63
2022-12-02T13:54:39.749Z,18.87
2022-12-02T13:57:11.574Z,18.48
2022-12-02T13:59:40.979Z,18.98
2022-12-02T14:02:12.394Z,19.40
2022-12-02T14:04:42.008Z,22.57
2022-12-02T14:07:11.521Z,19.40
2022-12-02T14:09:41.017Z,20.92
2022-12-02T14:12:12.171Z,20.40
2022-12-02T14:14:41.932Z,20.12
2022-12-02T14:17:11.362Z,20.30
2022-12-02T14:19:40.883Z,21.85
2022-12-02T14:22:10.527Z,19.80
2022-12-02T14:24:43.060Z,19.62
2022-12-02T14:27:11.343Z,18.65
2022-12-02T14:29:40.871Z,18.45
2022-12-02T14:32:10.485Z,19.52
2022-12-02T14:34:40.148Z,18.77
2022-12-02T14:37:14.625Z,17.50
2022-12-02T14:39:40.829Z,19.57
2022-12-02T14:42:10.893Z,18.60
2022-12-02T14:44:40.586Z,18.42
2022-12-02T14:47:10.287Z,19.27
2022-12-02T14:49:42.029Z,18.42
2022-12-02T14:52:12.970Z,18.77
2022-12-02T14:54:42.689Z,18.95
2022-12-02T14:57:17.067Z,21.70
2022-12-02T14:59:46.784Z,19.77
2022-12-02T15:02:16.534Z,21.40
2022-12-02T15:04:46.368Z,18.87
2022-12-02T15:07:17.575Z,18.12
2022-12-02T15:09:47.166Z,18.73
2022-12-02T15:12:16.801Z,18.50
2022-12-02T15:14:46.451Z,17.67
2022-12-02T15:17:16.114Z,18.52
2022-12-02T15:19:47.286Z,16.85
2022-12-02T15:22:16.819Z,17.27
2022-12-02T15:24:47.444Z,18.32
2022-12-02T15:27:17.281Z,19.23
2022-12-02T15:29:47.024Z,19.85
2022-12-02T15:32:19.255Z,19.82
2022-12-02T15:34:48.379Z,18.80
2022-12-02T15:37:17.962Z,18.42
2022-12-02T15:39:47.474Z,18.12
2022-12-02T15:42:16.893Z,19.85
2022-12-02T15:44:46.469Z,20.82
2022-12-02T15:47:16.278Z,28.70
2022-12-02T15:49:45.735Z,26.52
2022-12-02T15:52:15.361Z,32.98
2022-12-02T15:54:46.165Z,29.15
2022-12-02T15:57:15.710Z,23.35
2022-12-02T15:59:45.152Z,19.45
2022-12-02T16:02:14.757Z,20.17
2022-12-02T16:04:44.399Z,21.15
2022-12-02T16:07:15.606Z,20.23
2022-12-02T16:09:45.321Z,19.00
2022-12-02T16:12:14.943Z,21.00
2022-12-02T16:14:44.679Z,19.10
2022-12-02T16:17:15.292Z,21.48
2022-12-02T16:19:46.590Z,20.15
2022-12-02T16:22:16.197Z,19.05
2022-12-02T16:24:45.655Z,18.67
2022-12-02T16:27:15.091Z,20.32
2022-12-02T16:29:44.714Z,20.40
2022-12-02T16:32:18.557Z,19.90
2022-12-02T16:34:45.310Z,19.60
2022-12-02T16:37:16.459Z,19.87
2022-12-02T16:39:45.958Z,18.52
2022-12-02T16:42:15.469Z,20.32
2022-12-02T16:44:44.963Z,20.35
2022-12-02T16:47:14.438Z,19.32
2022-12-02T16:49:43.918Z,20.23
2022-12-02T16:52:13.383Z,21.68
2022-12-02T16:54:42.885Z,20.77
2022-12-02T16:57:12.319Z,20.00
2022-12-02T16:59:41.762Z,21.00
2022-12-02T17:02:12.985Z,20.35
2022-12-02T17:04:42.486Z,19.57
2022-12-02T17:07:11.920Z,20.77
2022-12-02T17:09:42.155Z,20.95
2022-12-02T17:12:11.711Z,19.52
2022-12-02T17:14:42.510Z,20.77
2022-12-02T17:17:30.740Z,20.30
2022-12-02T17:19:43.413Z,20.27
2022-12-02T17:22:13.395Z,20.77
2022-12-02T17:24:42.826Z,19.95
2022-12-02T17:27:12.660Z,19.70
2022-12-02T17:29:42.227Z,21.82
2022-12-02T17:32:13.456Z,20.35
2022-12-02T17:34:42.946Z,21.05
2022-12-02T17:37:12.603Z,21.82
2022-12-02T17:39:44.158Z,20.62
2022-12-02T17:42:15.415Z,26.33
2022-12-02T17:44:46.876Z,23.00
2022-12-02T17:47:16.351Z,21.30
2022-12-02T17:49:45.757Z,21.02
2022-12-02T17:52:20.186Z,21.07
2022-12-02T17:54:46.412Z,20.82
2022-12-02T17:57:16.053Z,23.45
2022-12-02T17:59:45.628Z,22.05
2022-12-02T18:02:15.244Z,22.70
2022-12-02T18:04:47.025Z,21.68
2022-12-02T18:07:16.507Z,21.02
2022-12-02T18:09:47.703Z,20.97
2022-12-02T18:12:17.175Z,21.77
2022-12-02T18:14:46.680Z,20.88
2022-12-02T18:17:17.416Z,20.17
2022-12-02T18:19:46.818Z,21.17
2022-12-02T18:22:16.254Z,21.35
2022-12-02T18:24:45.706Z,21.55
2022-12-02T18:27:17.003Z,21.55
2022-12-02T18:29:47.386Z,22.62
2022-12-02T18:32:16.891Z,24.18
2022-12-02T18:34:47.425Z,23.42
2022-12-02T18:37:16.909Z,23.75
2022-12-02T18:39:46.349Z,27.98
2022-12-02T18:42:16.012Z,32.13
2022-12-02T18:44:47.660Z,27.93
2022-12-02T18:47:17.688Z,25.55
2022-12-02T18:49:47.111Z,24.95
2022-12-02T18:52:16.610Z,25.95
2022-12-02T18:54:46.181Z,24.15
2022-12-02T18:57:15.604Z,25.90
2022-12-02T18:59:45.051Z,24.40
2022-12-02T19:02:14.557Z,25.40
2022-12-02T19:04:46.875Z,25.43
2022-12-02T19:07:18.126Z,26.60
2022-12-02T19:09:53.089Z,26.60
2022-12-02T19:12:18.818Z,27.82
2022-12-02T19:14:48.252Z,28.85
2022-12-02T19:17:17.757Z,27.07
2022-12-02T19:19:47.254Z,34.33
2022-12-02T19:22:16.676Z,35.25
2022-12-02T19:24:46.203Z,29.72
2022-12-02T19:27:28.546Z,28.92
2022-12-02T19:29:46.732Z,29.45
2022-12-02T19:32:16.327Z,35.90
2022-12-02T19:34:45.860Z,34.63
2022-12-02T19:37:15.421Z,35.00
2022-12-02T19:39:44.859Z,35.63
2022-12-02T19:42:16.906Z,34.65
2022-12-02T19:44:46.348Z,36.95
2022-12-02T19:47:15.809Z,36.88
2022-12-02T19:49:45.240Z,35.15
2022-12-02T19:52:14.676Z,35.80
2022-12-02T19:54:49.549Z,34.25
2022-12-02T19:57:15.175Z,31.87
2022-12-02T19:59:45.213Z,33.67
2022-12-02T20:02:14.791Z,34.50
2022-12-02T20:04:44.380Z,32.80
2022-12-02T20:07:13.838Z,33.02
2022-12-02T20:09:43.414Z,33.75
2022-12-02T20:12:12.840Z,34.03
2022-12-02T20:14:42.399Z,35.05
2022-12-02T20:17:11.895Z,32.33
2022-12-02T20:19:41.300Z,34.67
2022-12-02T20:22:10.836Z,36.08
2022-12-02T20:24:40.268Z,36.15
2022-12-02T20:27:09.773Z,36.38
2022-12-02T20:29:39.375Z,38.38
2022-12-02T20:32:08.856Z,39.03
2022-12-02T20:34:40.044Z,40.00
2022-12-02T20:37:09.604Z,38.13
2022-12-02T20:39:40.988Z,41.45
2022-12-02T20:42:11.052Z,37.70
2022-12-02T20:44:40.473Z,37.93
2022-12-02T20:47:09.994Z,38.53
2022-12-02T20:49:39.666Z,40.03
2022-12-02T20:52:10.834Z,41.18
2022-12-02T20:54:40.290Z,39.78
2022-12-02T20:57:11.495Z,41.55
2022-12-02T20:59:41.044Z,39.90
2022-12-02T21:02:12.402Z,41.10
2022-12-02T21:04:41.971Z,38.63
2022-12-02T21:07:11.478Z,39.23
2022-12-02T21:09:41.481Z,40.27
2022-12-02T21:12:10.974Z,39.92
2022-12-02T21:14:40.608Z,40.10
2022-12-02T21:17:10.078Z,39.03
2022-12-02T21:19:39.603Z,40.95
2022-12-02T21:22:09.043Z,39.88
2022-12-02T21:24:38.512Z,39.08
2022-12-02T21:27:08.024Z,37.90
2022-12-02T21:29:37.603Z,39.83
2022-12-02T21:32:07.120Z,38.28
2022-12-02T21:34:36.601Z,39.27
2022-12-02T21:37:06.039Z,38.10
2022-12-02T21:39:35.527Z,37.48
2022-12-02T21:42:05.063Z,40.38
2022-12-02T21:44:34.507Z,39.83
2022-12-02T21:47:03.977Z,43.30
2022-12-02T21:49:33.526Z,43.05
2022-12-02T21:52:02.959Z,42.23
2022-12-02T21:54:32.478Z,44.15
2022-12-02T21:57:03.521Z,49.48
2022-12-02T21:59:33.035Z,47.67
2022-12-02T22:02:02.523Z,47.83
2022-12-02T22:04:32.217Z,47.00
2022-12-02T22:07:05.984Z,49.30
2022-12-02T22:09:35.461Z,47.90
2022-12-02T22:12:06.312Z,53.28
2022-12-02T22:14:36.295Z,50.88
2022-12-02T22:17:05.805Z,54.03
2022-12-02T22:19:35.314Z,52.00
2022-12-02T22:22:04.918Z,49.27
2022-12-02T22:24:34.413Z,47.75
2022-12-02T22:27:03.924Z,46.88
2022-12-02T22:29:33.369Z,44.48
2022-12-02T22:32:05.127Z,45.90
2022-12-02T22:34:34.009Z,46.37
2022-12-02T22:37:03.444Z,46.75
2022-12-02T22:39:35.249Z,48.52
2022-12-02T22:42:04.814Z,44.65
2022-12-02T22:44:34.268Z,42.20
2022-12-02T22:47:03.773Z,44.38
2022-12-02T22:49:33.205Z,41.45
2022-12-02T22:52:02.640Z,41.77
2022-12-02T22:54:32.125Z,39.25
2022-12-02T22:57:01.555Z,38.23
2022-12-02T22:59:31.051Z,36.83
2022-12-02T23:02:03.089Z,35.38
2022-12-02T23:04:32.960Z,38.95
2022-12-02T23:07:02.458Z,38.35
2022-12-02T23:09:32.019Z,38.13
2022-12-02T23:12:01.519Z,37.95
2022-12-02T23:14:30.963Z,36.63
2022-12-02T23:17:00.495Z,36.30
2022-12-02T23:19:30.002Z,37.78
2022-12-02T23:21:59.434Z,35.83
2022-12-02T23:24:29.326Z,40.25
2022-12-02T23:26:58.757Z,36.83
2022-12-02T23:29:28.469Z,38.10
2022-12-02T23:31:58.096Z,39.18
2022-12-02T23:34:28.209Z,39.50
2022-12-02T23:36:57.635Z,35.60
2022-12-02T23:39:27.108Z,36.45
2022-12-02T23:41:56.541Z,38.17
2022-12-02T23:44:25.967Z,36.85
2022-12-02T23:46:55.462Z,37.30
2022-12-02T23:49:24.971Z,36.10
2022-12-02T23:51:56.038Z,39.63
2022-12-02T23:54:25.642Z,38.58
2022-12-02T23:56:55.129Z,40.38
2022-12-02T23:59:24.675Z,38.55
